sensor_id;sensor_type;location;lat;lon;timestamp;temperature;humidity
51011;DHT22;37038;50.182;8.624;2023-08-06T00:01:03;16.00;99.90
51011;DHT22;37038;50.182;8.624;2023-08-06T00:03:50;16.00;99.90
51011;DHT22;37038;50.182;8.624;2023-08-06T00:06:38;15.80;99.90
51011;DHT22;37038;50.182;8.624;2023-08-06T00:09:25;15.70;99.90
51011;DHT22;37038;50.182;8.624;2023-08-06T00:12:13;15.70;99.90
51011;DHT22;37038;50.182;8.624;2023-08-06T00:15:00;15.80;99.90
51011;DHT22;37038;50.182;8.624;2023-08-06T00:17:47;15.70;99.90
51011;DHT22;37038;50.182;8.624;2023-08-06T00:20:35;15.70;99.90
51011;DHT22;37038;50.182;8.624;2023-08-06T00:23:25;15.70;99.90
51011;DHT22;37038;50.182;8.624;2023-08-06T00:26:13;15.60;99.90
51011;DHT22;37038;50.182;8.624;2023-08-06T00:29:00;15.70;99.90
51011;DHT22;37038;50.182;8.624;2023-08-06T00:31:48;15.70;99.90
51011;DHT22;37038;50.182;8.624;2023-08-06T00:34:36;15.70;99.90
51011;DHT22;37038;50.182;8.624;2023-08-06T00:37:23;15.70;99.90
51011;DHT22;37038;50.182;8.624;2023-08-06T00:40:11;15.70;99.90
51011;DHT22;37038;50.182;8.624;2023-08-06T00:42:58;15.70;99.90
51011;DHT22;37038;50.182;8.624;2023-08-06T00:45:46;15.70;99.90
51011;DHT22;37038;50.182;8.624;2023-08-06T00:48:33;15.80;99.90
51011;DHT22;37038;50.182;8.624;2023-08-06T00:51:21;15.80;99.90
51011;DHT22;37038;50.182;8.624;2023-08-06T00:54:09;15.80;99.90
51011;DHT22;37038;50.182;8.624;2023-08-06T00:56:56;15.90;99.90
51011;DHT22;37038;50.182;8.624;2023-08-06T00:59:45;15.80;99.90
51011;DHT22;37038;50.182;8.624;2023-08-06T01:02:32;15.80;99.90
51011;DHT22;37038;50.182;8.624;2023-08-06T01:05:20;15.90;99.90
51011;DHT22;37038;50.182;8.624;2023-08-06T01:11:14;15.90;99.90
51011;DHT22;37038;50.182;8.624;2023-08-06T01:14:23;16.20;99.90
51011;DHT22;37038;50.182;8.624;2023-08-06T01:17:12;16.30;99.90
51011;DHT22;37038;50.182;8.624;2023-08-06T01:20:00;16.00;99.90
51011;DHT22;37038;50.182;8.624;2023-08-06T01:22:47;15.80;99.90
51011;DHT22;37038;50.182;8.624;2023-08-06T01:25:57;15.70;99.90
51011;DHT22;37038;50.182;8.624;2023-08-06T01:28:53;15.80;99.90
51011;DHT22;37038;50.182;8.624;2023-08-06T01:31:43;15.90;99.90
51011;DHT22;37038;50.182;8.624;2023-08-06T01:34:32;15.80;99.90
51011;DHT22;37038;50.182;8.624;2023-08-06T01:37:21;16.00;99.90
51011;DHT22;37038;50.182;8.624;2023-08-06T01:40:11;16.00;99.90
51011;DHT22;37038;50.182;8.624;2023-08-06T01:42:59;16.30;99.90
51011;DHT22;37038;50.182;8.624;2023-08-06T01:45:46;16.30;99.90
51011;DHT22;37038;50.182;8.624;2023-08-06T01:48:34;16.40;99.90
51011;DHT22;37038;50.182;8.624;2023-08-06T01:51:22;16.70;99.90
51011;DHT22;37038;50.182;8.624;2023-08-06T01:54:09;16.80;99.90
51011;DHT22;37038;50.182;8.624;2023-08-06T01:56:57;17.00;99.90
51011;DHT22;37038;50.182;8.624;2023-08-06T01:59:45;17.00;99.90
51011;DHT22;37038;50.182;8.624;2023-08-06T02:02:33;17.20;99.90
51011;DHT22;37038;50.182;8.624;2023-08-06T02:05:21;17.30;99.90
51011;DHT22;37038;50.182;8.624;2023-08-06T02:08:08;17.50;99.90
51011;DHT22;37038;50.182;8.624;2023-08-06T02:10:56;17.50;99.90
51011;DHT22;37038;50.182;8.624;2023-08-06T02:13:45;17.60;99.90
51011;DHT22;37038;50.182;8.624;2023-08-06T02:16:33;17.70;99.90
51011;DHT22;37038;50.182;8.624;2023-08-06T02:19:20;17.30;99.90
51011;DHT22;37038;50.182;8.624;2023-08-06T02:22:08;17.20;99.90
51011;DHT22;37038;50.182;8.624;2023-08-06T02:24:55;16.70;99.90
51011;DHT22;37038;50.182;8.624;2023-08-06T02:27:42;16.50;99.90
51011;DHT22;37038;50.182;8.624;2023-08-06T02:30:30;16.50;99.90
51011;DHT22;37038;50.182;8.624;2023-08-06T02:33:17;16.50;99.90
51011;DHT22;37038;50.182;8.624;2023-08-06T02:36:05;16.30;99.90
51011;DHT22;37038;50.182;8.624;2023-08-06T02:38:52;16.40;99.90
51011;DHT22;37038;50.182;8.624;2023-08-06T02:41:40;16.30;99.90
51011;DHT22;37038;50.182;8.624;2023-08-06T02:44:28;16.00;99.90
51011;DHT22;37038;50.182;8.624;2023-08-06T02:47:15;15.80;99.90
51011;DHT22;37038;50.182;8.624;2023-08-06T02:50:03;15.70;99.90
51011;DHT22;37038;50.182;8.624;2023-08-06T02:52:51;15.50;99.90
51011;DHT22;37038;50.182;8.624;2023-08-06T02:55:38;15.60;99.90
51011;DHT22;37038;50.182;8.624;2023-08-06T02:58:31;15.60;99.90
51011;DHT22;37038;50.182;8.624;2023-08-06T03:01:19;15.50;99.90
51011;DHT22;37038;50.182;8.624;2023-08-06T03:04:06;15.40;99.90
51011;DHT22;37038;50.182;8.624;2023-08-06T03:06:54;15.50;99.90
51011;DHT22;37038;50.182;8.624;2023-08-06T03:09:42;15.50;99.90
51011;DHT22;37038;50.182;8.624;2023-08-06T03:12:29;15.40;99.90
51011;DHT22;37038;50.182;8.624;2023-08-06T03:15:17;15.40;99.90
51011;DHT22;37038;50.182;8.624;2023-08-06T03:18:04;15.40;99.90
51011;DHT22;37038;50.182;8.624;2023-08-06T03:20:53;15.40;99.90
51011;DHT22;37038;50.182;8.624;2023-08-06T03:23:40;15.50;99.90
51011;DHT22;37038;50.182;8.624;2023-08-06T03:26:28;15.40;99.90
51011;DHT22;37038;50.182;8.624;2023-08-06T03:29:16;15.40;99.90
51011;DHT22;37038;50.182;8.624;2023-08-06T03:32:03;15.40;99.90
51011;DHT22;37038;50.182;8.624;2023-08-06T03:34:51;15.50;99.90
51011;DHT22;37038;50.182;8.624;2023-08-06T03:37:38;15.60;99.90
51011;DHT22;37038;50.182;8.624;2023-08-06T03:40:26;15.70;99.90
51011;DHT22;37038;50.182;8.624;2023-08-06T03:43:14;15.70;99.90
51011;DHT22;37038;50.182;8.624;2023-08-06T03:46:01;15.70;99.90
51011;DHT22;37038;50.182;8.624;2023-08-06T03:48:49;15.70;99.90
51011;DHT22;37038;50.182;8.624;2023-08-06T03:51:36;15.70;99.90
51011;DHT22;37038;50.182;8.624;2023-08-06T03:54:23;15.60;99.90
51011;DHT22;37038;50.182;8.624;2023-08-06T03:57:11;15.70;99.90
51011;DHT22;37038;50.182;8.624;2023-08-06T03:59:58;15.60;99.90
51011;DHT22;37038;50.182;8.624;2023-08-06T04:02:46;15.50;99.90
51011;DHT22;37038;50.182;8.624;2023-08-06T04:05:34;15.40;99.90
51011;DHT22;37038;50.182;8.624;2023-08-06T04:08:21;15.30;99.90
51011;DHT22;37038;50.182;8.624;2023-08-06T04:11:09;15.30;99.90
51011;DHT22;37038;50.182;8.624;2023-08-06T04:13:56;15.40;99.90
51011;DHT22;37038;50.182;8.624;2023-08-06T04:16:44;15.30;99.90
51011;DHT22;37038;50.182;8.624;2023-08-06T04:19:31;15.20;99.90
51011;DHT22;37038;50.182;8.624;2023-08-06T04:22:19;15.20;99.90
51011;DHT22;37038;50.182;8.624;2023-08-06T04:25:06;15.20;99.90
51011;DHT22;37038;50.182;8.624;2023-08-06T04:27:54;15.20;99.90
51011;DHT22;37038;50.182;8.624;2023-08-06T04:30:41;15.30;99.90
51011;DHT22;37038;50.182;8.624;2023-08-06T04:33:29;15.20;99.90
51011;DHT22;37038;50.182;8.624;2023-08-06T04:36:16;15.20;99.90
51011;DHT22;37038;50.182;8.624;2023-08-06T04:39:04;15.20;99.90
51011;DHT22;37038;50.182;8.624;2023-08-06T04:41:51;15.20;99.90
51011;DHT22;37038;50.182;8.624;2023-08-06T04:44:39;15.20;99.90
51011;DHT22;37038;50.182;8.624;2023-08-06T04:47:26;15.30;99.90
51011;DHT22;37038;50.182;8.624;2023-08-06T04:50:14;15.40;99.90
51011;DHT22;37038;50.182;8.624;2023-08-06T04:53:01;15.40;99.90
51011;DHT22;37038;50.182;8.624;2023-08-06T04:55:49;16.00;99.90
51011;DHT22;37038;50.182;8.624;2023-08-06T04:58:36;15.90;99.90
51011;DHT22;37038;50.182;8.624;2023-08-06T05:01:26;15.50;99.90
51011;DHT22;37038;50.182;8.624;2023-08-06T05:04:14;15.20;99.90
51011;DHT22;37038;50.182;8.624;2023-08-06T05:07:01;15.10;99.90
51011;DHT22;37038;50.182;8.624;2023-08-06T05:09:48;14.90;99.90
51011;DHT22;37038;50.182;8.624;2023-08-06T05:12:36;14.80;99.90
51011;DHT22;37038;50.182;8.624;2023-08-06T05:15:23;14.90;99.90
51011;DHT22;37038;50.182;8.624;2023-08-06T05:18:12;14.70;99.90
51011;DHT22;37038;50.182;8.624;2023-08-06T05:21:00;14.50;99.90
51011;DHT22;37038;50.182;8.624;2023-08-06T05:23:47;14.40;99.90
51011;DHT22;37038;50.182;8.624;2023-08-06T05:26:34;14.50;99.90
51011;DHT22;37038;50.182;8.624;2023-08-06T05:29:22;14.50;99.90
51011;DHT22;37038;50.182;8.624;2023-08-06T05:32:09;14.40;99.90
51011;DHT22;37038;50.182;8.624;2023-08-06T05:34:57;14.60;99.90
51011;DHT22;37038;50.182;8.624;2023-08-06T05:37:45;14.50;99.90
51011;DHT22;37038;50.182;8.624;2023-08-06T05:40:35;14.50;99.90
51011;DHT22;37038;50.182;8.624;2023-08-06T05:43:22;14.50;99.90
51011;DHT22;37038;50.182;8.624;2023-08-06T05:46:10;14.60;99.90
51011;DHT22;37038;50.182;8.624;2023-08-06T05:48:57;14.50;99.90
51011;DHT22;37038;50.182;8.624;2023-08-06T05:51:45;14.50;99.90
51011;DHT22;37038;50.182;8.624;2023-08-06T05:54:32;14.40;99.90
51011;DHT22;37038;50.182;8.624;2023-08-06T05:57:20;14.40;99.90
51011;DHT22;37038;50.182;8.624;2023-08-06T06:00:07;14.30;99.90
51011;DHT22;37038;50.182;8.624;2023-08-06T06:02:55;14.40;99.90
51011;DHT22;37038;50.182;8.624;2023-08-06T06:05:42;14.40;99.90
51011;DHT22;37038;50.182;8.624;2023-08-06T06:08:30;14.50;99.90
51011;DHT22;37038;50.182;8.624;2023-08-06T06:11:17;14.50;99.90
51011;DHT22;37038;50.182;8.624;2023-08-06T06:14:08;14.50;99.90
51011;DHT22;37038;50.182;8.624;2023-08-06T06:16:56;14.30;99.90
51011;DHT22;37038;50.182;8.624;2023-08-06T06:19:43;14.40;99.90
51011;DHT22;37038;50.182;8.624;2023-08-06T06:22:31;14.50;99.90
51011;DHT22;37038;50.182;8.624;2023-08-06T06:25:18;14.60;99.90
51011;DHT22;37038;50.182;8.624;2023-08-06T06:28:06;14.60;99.90
51011;DHT22;37038;50.182;8.624;2023-08-06T06:30:53;14.60;99.90
51011;DHT22;37038;50.182;8.624;2023-08-06T06:33:40;14.60;99.90
51011;DHT22;37038;50.182;8.624;2023-08-06T06:36:28;14.70;99.90
51011;DHT22;37038;50.182;8.624;2023-08-06T06:39:15;14.70;99.90
51011;DHT22;37038;50.182;8.624;2023-08-06T06:42:03;14.70;99.90
51011;DHT22;37038;50.182;8.624;2023-08-06T06:44:50;14.60;99.90
51011;DHT22;37038;50.182;8.624;2023-08-06T06:47:38;14.60;99.90
51011;DHT22;37038;50.182;8.624;2023-08-06T06:50:25;14.70;99.90
51011;DHT22;37038;50.182;8.624;2023-08-06T06:53:14;14.60;99.90
51011;DHT22;37038;50.182;8.624;2023-08-06T06:56:02;14.50;99.90
51011;DHT22;37038;50.182;8.624;2023-08-06T06:58:49;14.40;99.90
51011;DHT22;37038;50.182;8.624;2023-08-06T07:01:37;14.40;99.90
51011;DHT22;37038;50.182;8.624;2023-08-06T07:04:27;14.30;99.90
51011;DHT22;37038;50.182;8.624;2023-08-06T07:07:15;14.40;99.90
51011;DHT22;37038;50.182;8.624;2023-08-06T07:10:02;14.40;99.90
51011;DHT22;37038;50.182;8.624;2023-08-06T07:12:50;14.40;99.90
51011;DHT22;37038;50.182;8.624;2023-08-06T07:15:37;14.60;99.90
51011;DHT22;37038;50.182;8.624;2023-08-06T07:18:24;14.60;99.90
51011;DHT22;37038;50.182;8.624;2023-08-06T07:21:12;14.60;99.90
51011;DHT22;37038;50.182;8.624;2023-08-06T07:23:59;14.50;99.90
51011;DHT22;37038;50.182;8.624;2023-08-06T07:26:47;14.40;99.90
51011;DHT22;37038;50.182;8.624;2023-08-06T07:29:34;14.60;99.90
51011;DHT22;37038;50.182;8.624;2023-08-06T07:32:22;14.50;99.90
51011;DHT22;37038;50.182;8.624;2023-08-06T07:35:09;14.70;99.90
51011;DHT22;37038;50.182;8.624;2023-08-06T07:37:59;14.60;99.90
51011;DHT22;37038;50.182;8.624;2023-08-06T07:40:47;14.50;99.90
51011;DHT22;37038;50.182;8.624;2023-08-06T07:43:34;14.60;99.90
51011;DHT22;37038;50.182;8.624;2023-08-06T07:46:23;14.70;99.90
51011;DHT22;37038;50.182;8.624;2023-08-06T07:49:10;14.60;99.90
51011;DHT22;37038;50.182;8.624;2023-08-06T07:51:58;14.50;99.90
51011;DHT22;37038;50.182;8.624;2023-08-06T07:54:46;14.50;99.90
51011;DHT22;37038;50.182;8.624;2023-08-06T07:57:33;14.70;99.90
51011;DHT22;37038;50.182;8.624;2023-08-06T08:00:21;14.70;99.90
51011;DHT22;37038;50.182;8.624;2023-08-06T08:03:09;14.60;99.90
51011;DHT22;37038;50.182;8.624;2023-08-06T08:05:56;14.80;99.90
51011;DHT22;37038;50.182;8.624;2023-08-06T08:08:44;14.80;99.90
51011;DHT22;37038;50.182;8.624;2023-08-06T08:11:32;14.80;99.90
51011;DHT22;37038;50.182;8.624;2023-08-06T08:14:19;14.90;99.90
51011;DHT22;37038;50.182;8.624;2023-08-06T08:17:07;15.00;99.90
51011;DHT22;37038;50.182;8.624;2023-08-06T08:19:54;15.20;99.90
51011;DHT22;37038;50.182;8.624;2023-08-06T08:22:42;15.30;99.90
51011;DHT22;37038;50.182;8.624;2023-08-06T08:25:29;15.40;99.90
51011;DHT22;37038;50.182;8.624;2023-08-06T08:28:19;15.80;99.90
51011;DHT22;37038;50.182;8.624;2023-08-06T08:31:09;16.00;99.90
51011;DHT22;37038;50.182;8.624;2023-08-06T08:33:58;16.00;99.90
51011;DHT22;37038;50.182;8.624;2023-08-06T08:36:48;16.50;99.90
51011;DHT22;37038;50.182;8.624;2023-08-06T08:39:37;16.60;99.90
51011;DHT22;37038;50.182;8.624;2023-08-06T08:42:24;16.70;99.90
51011;DHT22;37038;50.182;8.624;2023-08-06T08:45:12;16.60;99.90
51011;DHT22;37038;50.182;8.624;2023-08-06T08:48:01;16.90;99.90
51011;DHT22;37038;50.182;8.624;2023-08-06T08:50:49;16.90;99.90
51011;DHT22;37038;50.182;8.624;2023-08-06T08:53:36;16.90;99.90
51011;DHT22;37038;50.182;8.624;2023-08-06T08:56:26;17.80;99.90
51011;DHT22;37038;50.182;8.624;2023-08-06T08:59:14;18.90;99.90
51011;DHT22;37038;50.182;8.624;2023-08-06T09:02:04;18.40;99.90
51011;DHT22;37038;50.182;8.624;2023-08-06T09:04:52;17.20;99.90
51011;DHT22;37038;50.182;8.624;2023-08-06T09:07:45;16.70;99.90
51011;DHT22;37038;50.182;8.624;2023-08-06T09:10:37;16.20;99.90
51011;DHT22;37038;50.182;8.624;2023-08-06T09:13:28;16.30;99.90
51011;DHT22;37038;50.182;8.624;2023-08-06T09:16:15;16.30;99.90
51011;DHT22;37038;50.182;8.624;2023-08-06T09:19:07;16.30;99.90
51011;DHT22;37038;50.182;8.624;2023-08-06T09:21:55;16.70;99.90
51011;DHT22;37038;50.182;8.624;2023-08-06T09:24:43;17.50;99.90
51011;DHT22;37038;50.182;8.624;2023-08-06T09:27:31;19.30;99.90
51011;DHT22;37038;50.182;8.624;2023-08-06T09:30:28;20.60;99.90
51011;DHT22;37038;50.182;8.624;2023-08-06T09:33:17;19.80;99.90
51011;DHT22;37038;50.182;8.624;2023-08-06T09:36:11;20.80;99.90
51011;DHT22;37038;50.182;8.624;2023-08-06T09:39:00;21.60;99.90
51011;DHT22;37038;50.182;8.624;2023-08-06T09:41:49;21.40;99.90
51011;DHT22;37038;50.182;8.624;2023-08-06T09:44:43;21.80;99.90
51011;DHT22;37038;50.182;8.624;2023-08-06T09:47:32;21.60;99.90
51011;DHT22;37038;50.182;8.624;2023-08-06T09:50:21;22.00;99.90
51011;DHT22;37038;50.182;8.624;2023-08-06T09:53:09;21.90;99.90
51011;DHT22;37038;50.182;8.624;2023-08-06T09:55:59;21.80;99.90
51011;DHT22;37038;50.182;8.624;2023-08-06T09:58:51;21.80;99.90
51011;DHT22;37038;50.182;8.624;2023-08-06T10:01:41;22.10;99.90
51011;DHT22;37038;50.182;8.624;2023-08-06T10:04:29;23.50;99.90
51011;DHT22;37038;50.182;8.624;2023-08-06T10:07:27;21.60;99.90
51011;DHT22;37038;50.182;8.624;2023-08-06T10:10:16;20.30;99.90
51011;DHT22;37038;50.182;8.624;2023-08-06T10:13:06;20.50;99.90
51011;DHT22;37038;50.182;8.624;2023-08-06T10:15:55;19.40;99.90
51011;DHT22;37038;50.182;8.624;2023-08-06T10:18:42;18.80;99.90
51011;DHT22;37038;50.182;8.624;2023-08-06T10:21:31;18.00;99.90
51011;DHT22;37038;50.182;8.624;2023-08-06T10:24:18;17.30;99.90
51011;DHT22;37038;50.182;8.624;2023-08-06T10:27:06;17.30;99.90
51011;DHT22;37038;50.182;8.624;2023-08-06T10:29:53;17.70;99.90
51011;DHT22;37038;50.182;8.624;2023-08-06T10:32:47;18.00;99.90
51011;DHT22;37038;50.182;8.624;2023-08-06T10:35:47;18.10;99.90
51011;DHT22;37038;50.182;8.624;2023-08-06T10:38:46;18.00;99.90
51011;DHT22;37038;50.182;8.624;2023-08-06T10:41:34;18.40;99.90
51011;DHT22;37038;50.182;8.624;2023-08-06T10:44:21;18.70;99.90
51011;DHT22;37038;50.182;8.624;2023-08-06T10:47:27;18.50;99.90
51011;DHT22;37038;50.182;8.624;2023-08-06T10:50:16;19.00;99.90
51011;DHT22;37038;50.182;8.624;2023-08-06T10:53:06;18.80;99.90
51011;DHT22;37038;50.182;8.624;2023-08-06T10:55:55;19.40;99.90
51011;DHT22;37038;50.182;8.624;2023-08-06T10:58:46;19.70;99.90
51011;DHT22;37038;50.182;8.624;2023-08-06T11:01:34;19.40;99.90
51011;DHT22;37038;50.182;8.624;2023-08-06T11:04:25;20.60;99.90
51011;DHT22;37038;50.182;8.624;2023-08-06T11:07:17;21.80;99.90
51011;DHT22;37038;50.182;8.624;2023-08-06T11:10:08;20.50;99.90
51011;DHT22;37038;50.182;8.624;2023-08-06T11:13:00;20.20;99.90
51011;DHT22;37038;50.182;8.624;2023-08-06T11:15:47;20.00;99.90
51011;DHT22;37038;50.182;8.624;2023-08-06T11:18:35;20.10;99.90
51011;DHT22;37038;50.182;8.624;2023-08-06T11:21:23;19.90;99.90
51011;DHT22;37038;50.182;8.624;2023-08-06T11:24:12;21.70;99.90
51011;DHT22;37038;50.182;8.624;2023-08-06T11:26:59;22.10;99.90
51011;DHT22;37038;50.182;8.624;2023-08-06T11:29:49;23.00;99.90
51011;DHT22;37038;50.182;8.624;2023-08-06T11:32:46;22.90;99.90
51011;DHT22;37038;50.182;8.624;2023-08-06T11:35:35;21.90;99.90
51011;DHT22;37038;50.182;8.624;2023-08-06T11:38:26;20.80;99.90
51011;DHT22;37038;50.182;8.624;2023-08-06T11:41:14;20.00;99.90
51011;DHT22;37038;50.182;8.624;2023-08-06T11:44:01;20.80;99.90
51011;DHT22;37038;50.182;8.624;2023-08-06T11:46:50;19.10;99.90
51011;DHT22;37038;50.182;8.624;2023-08-06T11:49:40;18.10;99.90
51011;DHT22;37038;50.182;8.624;2023-08-06T11:52:28;16.50;99.90
51011;DHT22;37038;50.182;8.624;2023-08-06T11:55:16;16.20;99.90
51011;DHT22;37038;50.182;8.624;2023-08-06T11:58:03;15.80;99.90
51011;DHT22;37038;50.182;8.624;2023-08-06T12:00:54;15.60;99.90
51011;DHT22;37038;50.182;8.624;2023-08-06T12:03:43;15.50;99.90
51011;DHT22;37038;50.182;8.624;2023-08-06T12:06:31;15.40;99.90
51011;DHT22;37038;50.182;8.624;2023-08-06T12:09:28;15.40;99.90
51011;DHT22;37038;50.182;8.624;2023-08-06T12:12:16;15.40;99.90
51011;DHT22;37038;50.182;8.624;2023-08-06T12:15:04;15.40;99.90
51011;DHT22;37038;50.182;8.624;2023-08-06T12:17:52;15.50;99.90
51011;DHT22;37038;50.182;8.624;2023-08-06T12:20:39;15.50;99.90
51011;DHT22;37038;50.182;8.624;2023-08-06T12:23:27;15.60;99.90
51011;DHT22;37038;50.182;8.624;2023-08-06T12:26:14;15.60;99.90
51011;DHT22;37038;50.182;8.624;2023-08-06T12:29:02;15.50;99.90
51011;DHT22;37038;50.182;8.624;2023-08-06T12:31:49;15.60;99.90
51011;DHT22;37038;50.182;8.624;2023-08-06T12:34:40;15.60;99.90
51011;DHT22;37038;50.182;8.624;2023-08-06T12:37:39;15.80;99.90
51011;DHT22;37038;50.182;8.624;2023-08-06T12:40:26;15.80;99.90
51011;DHT22;37038;50.182;8.624;2023-08-06T12:43:23;15.70;99.90
51011;DHT22;37038;50.182;8.624;2023-08-06T12:46:11;15.40;99.90
51011;DHT22;37038;50.182;8.624;2023-08-06T12:48:59;15.40;99.90
51011;DHT22;37038;50.182;8.624;2023-08-06T12:51:47;15.30;99.90
51011;DHT22;37038;50.182;8.624;2023-08-06T12:54:35;15.20;99.90
51011;DHT22;37038;50.182;8.624;2023-08-06T12:57:24;15.20;99.90
51011;DHT22;37038;50.182;8.624;2023-08-06T13:00:22;15.10;99.90
51011;DHT22;37038;50.182;8.624;2023-08-06T13:03:10;15.00;99.90
51011;DHT22;37038;50.182;8.624;2023-08-06T13:05:57;15.00;99.90
51011;DHT22;37038;50.182;8.624;2023-08-06T13:08:45;15.00;99.90
51011;DHT22;37038;50.182;8.624;2023-08-06T13:11:33;15.20;99.90
51011;DHT22;37038;50.182;8.624;2023-08-06T13:14:20;15.40;99.90
51011;DHT22;37038;50.182;8.624;2023-08-06T13:17:07;15.50;99.90
51011;DHT22;37038;50.182;8.624;2023-08-06T13:19:57;15.40;99.90
51011;DHT22;37038;50.182;8.624;2023-08-06T13:22:44;15.40;99.90
51011;DHT22;37038;50.182;8.624;2023-08-06T13:25:33;15.30;99.90
51011;DHT22;37038;50.182;8.624;2023-08-06T13:28:26;15.10;99.90
51011;DHT22;37038;50.182;8.624;2023-08-06T13:31:13;15.00;99.90
51011;DHT22;37038;50.182;8.624;2023-08-06T13:34:01;15.00;99.90
51011;DHT22;37038;50.182;8.624;2023-08-06T13:36:48;14.80;99.90
51011;DHT22;37038;50.182;8.624;2023-08-06T13:39:37;14.70;99.90
51011;DHT22;37038;50.182;8.624;2023-08-06T13:42:24;14.80;99.90
51011;DHT22;37038;50.182;8.624;2023-08-06T13:45:12;14.80;99.90
51011;DHT22;37038;50.182;8.624;2023-08-06T13:47:59;14.80;99.90
51011;DHT22;37038;50.182;8.624;2023-08-06T13:50:47;15.00;99.90
51011;DHT22;37038;50.182;8.624;2023-08-06T13:53:34;15.00;99.90
51011;DHT22;37038;50.182;8.624;2023-08-06T13:56:22;14.90;99.90
51011;DHT22;37038;50.182;8.624;2023-08-06T13:59:09;15.00;99.90
51011;DHT22;37038;50.182;8.624;2023-08-06T14:02:00;15.00;99.90
51011;DHT22;37038;50.182;8.624;2023-08-06T14:04:48;15.00;99.90
51011;DHT22;37038;50.182;8.624;2023-08-06T14:07:35;14.90;99.90
51011;DHT22;37038;50.182;8.624;2023-08-06T14:10:23;15.00;99.90
51011;DHT22;37038;50.182;8.624;2023-08-06T14:13:10;15.00;99.90
51011;DHT22;37038;50.182;8.624;2023-08-06T14:15:59;15.10;99.90
51011;DHT22;37038;50.182;8.624;2023-08-06T14:18:47;15.10;99.90
51011;DHT22;37038;50.182;8.624;2023-08-06T14:21:35;15.20;99.90
51011;DHT22;37038;50.182;8.624;2023-08-06T14:24:22;15.20;99.90
51011;DHT22;37038;50.182;8.624;2023-08-06T14:27:10;15.40;99.90
51011;DHT22;37038;50.182;8.624;2023-08-06T14:29:57;15.40;99.90
51011;DHT22;37038;50.182;8.624;2023-08-06T14:32:45;15.50;99.90
51011;DHT22;37038;50.182;8.624;2023-08-06T14:35:32;15.60;99.90
51011;DHT22;37038;50.182;8.624;2023-08-06T14:38:20;15.80;99.90
51011;DHT22;37038;50.182;8.624;2023-08-06T14:41:07;15.70;99.90
51011;DHT22;37038;50.182;8.624;2023-08-06T14:43:55;15.80;99.90
51011;DHT22;37038;50.182;8.624;2023-08-06T14:46:42;15.90;99.90
51011;DHT22;37038;50.182;8.624;2023-08-06T14:49:30;15.90;99.90
51011;DHT22;37038;50.182;8.624;2023-08-06T14:52:17;16.10;99.90
51011;DHT22;37038;50.182;8.624;2023-08-06T14:55:04;16.10;99.90
51011;DHT22;37038;50.182;8.624;2023-08-06T14:57:52;16.00;99.90
51011;DHT22;37038;50.182;8.624;2023-08-06T15:00:40;16.10;99.90
51011;DHT22;37038;50.182;8.624;2023-08-06T15:03:27;16.00;99.90
51011;DHT22;37038;50.182;8.624;2023-08-06T15:06:15;16.00;99.90
51011;DHT22;37038;50.182;8.624;2023-08-06T15:09:02;16.10;99.90
51011;DHT22;37038;50.182;8.624;2023-08-06T15:11:50;16.10;99.90
51011;DHT22;37038;50.182;8.624;2023-08-06T15:14:37;16.20;99.90
51011;DHT22;37038;50.182;8.624;2023-08-06T15:17:25;16.20;99.90
51011;DHT22;37038;50.182;8.624;2023-08-06T15:20:14;16.40;99.90
51011;DHT22;37038;50.182;8.624;2023-08-06T15:23:01;16.30;99.90
51011;DHT22;37038;50.182;8.624;2023-08-06T15:25:48;16.30;99.90
51011;DHT22;37038;50.182;8.624;2023-08-06T15:28:36;16.20;99.90
51011;DHT22;37038;50.182;8.624;2023-08-06T15:31:24;16.20;99.90
51011;DHT22;37038;50.182;8.624;2023-08-06T15:34:22;16.20;99.90
51011;DHT22;37038;50.182;8.624;2023-08-06T15:37:09;16.20;99.90
51011;DHT22;37038;50.182;8.624;2023-08-06T15:39:57;16.10;99.90
51011;DHT22;37038;50.182;8.624;2023-08-06T15:42:45;16.20;99.90
51011;DHT22;37038;50.182;8.624;2023-08-06T15:45:32;16.00;99.90
51011;DHT22;37038;50.182;8.624;2023-08-06T15:48:20;15.80;99.90
51011;DHT22;37038;50.182;8.624;2023-08-06T15:51:07;15.80;99.90
51011;DHT22;37038;50.182;8.624;2023-08-06T15:53:56;15.70;99.90
51011;DHT22;37038;50.182;8.624;2023-08-06T15:56:43;15.60;99.90
51011;DHT22;37038;50.182;8.624;2023-08-06T15:59:31;15.50;99.90
51011;DHT22;37038;50.182;8.624;2023-08-06T16:02:19;15.40;99.90
51011;DHT22;37038;50.182;8.624;2023-08-06T16:05:07;15.40;99.90
51011;DHT22;37038;50.182;8.624;2023-08-06T16:07:54;15.30;99.90
51011;DHT22;37038;50.182;8.624;2023-08-06T16:10:42;15.30;99.90
51011;DHT22;37038;50.182;8.624;2023-08-06T16:13:31;15.20;99.90
51011;DHT22;37038;50.182;8.624;2023-08-06T16:16:19;15.30;99.90
51011;DHT22;37038;50.182;8.624;2023-08-06T16:19:06;15.20;99.90
51011;DHT22;37038;50.182;8.624;2023-08-06T16:21:54;15.20;99.90
51011;DHT22;37038;50.182;8.624;2023-08-06T16:24:41;15.20;99.90
51011;DHT22;37038;50.182;8.624;2023-08-06T16:27:29;15.30;99.90
51011;DHT22;37038;50.182;8.624;2023-08-06T16:30:16;15.30;99.90
51011;DHT22;37038;50.182;8.624;2023-08-06T16:33:04;15.20;99.90
51011;DHT22;37038;50.182;8.624;2023-08-06T16:35:52;15.10;99.90
51011;DHT22;37038;50.182;8.624;2023-08-06T16:38:39;15.10;99.90
51011;DHT22;37038;50.182;8.624;2023-08-06T16:41:26;15.10;99.90
51011;DHT22;37038;50.182;8.624;2023-08-06T16:44:14;15.10;99.90
51011;DHT22;37038;50.182;8.624;2023-08-06T16:47:01;15.00;99.90
51011;DHT22;37038;50.182;8.624;2023-08-06T16:49:50;15.00;99.90
51011;DHT22;37038;50.182;8.624;2023-08-06T16:52:37;15.00;99.90
51011;DHT22;37038;50.182;8.624;2023-08-06T16:55:25;14.90;99.90
51011;DHT22;37038;50.182;8.624;2023-08-06T16:58:12;15.00;99.90
51011;DHT22;37038;50.182;8.624;2023-08-06T17:01:00;14.80;99.90
51011;DHT22;37038;50.182;8.624;2023-08-06T17:03:52;14.70;99.90
51011;DHT22;37038;50.182;8.624;2023-08-06T17:06:42;14.70;99.90
51011;DHT22;37038;50.182;8.624;2023-08-06T17:09:29;14.40;99.90
51011;DHT22;37038;50.182;8.624;2023-08-06T17:12:17;14.30;99.90
51011;DHT22;37038;50.182;8.624;2023-08-06T17:15:07;14.40;99.90
51011;DHT22;37038;50.182;8.624;2023-08-06T17:17:55;14.30;99.90
51011;DHT22;37038;50.182;8.624;2023-08-06T17:20:43;14.40;99.90
51011;DHT22;37038;50.182;8.624;2023-08-06T17:23:30;14.40;99.90
51011;DHT22;37038;50.182;8.624;2023-08-06T17:26:18;14.40;99.90
51011;DHT22;37038;50.182;8.624;2023-08-06T17:29:06;14.40;99.90
51011;DHT22;37038;50.182;8.624;2023-08-06T17:31:54;14.40;99.90
51011;DHT22;37038;50.182;8.624;2023-08-06T17:34:41;14.30;99.90
51011;DHT22;37038;50.182;8.624;2023-08-06T17:37:29;14.30;99.90
51011;DHT22;37038;50.182;8.624;2023-08-06T17:40:16;14.30;99.90
51011;DHT22;37038;50.182;8.624;2023-08-06T17:43:04;14.30;99.90
51011;DHT22;37038;50.182;8.624;2023-08-06T17:45:51;14.20;99.90